sensor_id;sensor_type;location;lat;lon;timestamp;temperature;humidity
46117;DHT22;32591;48.102;11.772;2022-12-10T00:01:30;2.40;99.90
46117;DHT22;32591;48.102;11.772;2022-12-10T00:03:58;2.30;99.90
46117;DHT22;32591;48.102;11.772;2022-12-10T00:06:29;2.30;99.90
46117;DHT22;32591;48.102;11.772;2022-12-10T00:08:58;2.30;99.90
46117;DHT22;32591;48.102;11.772;2022-12-10T00:11:26;2.30;99.90
46117;DHT22;32591;48.102;11.772;2022-12-10T00:13:53;2.40;99.90
46117;DHT22;32591;48.102;11.772;2022-12-10T00:16:24;2.40;99.90
46117;DHT22;32591;48.102;11.772;2022-12-10T00:18:53;2.40;99.90
46117;DHT22;32591;48.102;11.772;2022-12-10T00:21:22;2.40;99.90
46117;DHT22;32591;48.102;11.772;2022-12-10T00:23:50;2.50;99.90
46117;DHT22;32591;48.102;11.772;2022-12-10T00:26:20;2.50;99.90
46117;DHT22;32591;48.102;11.772;2022-12-10T00:28:48;2.50;99.90
46117;DHT22;32591;48.102;11.772;2022-12-10T00:31:17;2.50;99.90
46117;DHT22;32591;48.102;11.772;2022-12-10T00:33:48;2.40;99.90
46117;DHT22;32591;48.102;11.772;2022-12-10T00:36:16;2.40;99.90
46117;DHT22;32591;48.102;11.772;2022-12-10T00:38:45;2.40;99.90
46117;DHT22;32591;48.102;11.772;2022-12-10T00:41:13;2.40;99.90
46117;DHT22;32591;48.102;11.772;2022-12-10T00:43:41;2.40;99.90
46117;DHT22;32591;48.102;11.772;2022-12-10T00:46:09;2.40;99.90
46117;DHT22;32591;48.102;11.772;2022-12-10T00:48:36;2.50;99.90
46117;DHT22;32591;48.102;11.772;2022-12-10T00:51:10;2.50;99.90
46117;DHT22;32591;48.102;11.772;2022-12-10T00:53:39;2.50;99.90
46117;DHT22;32591;48.102;11.772;2022-12-10T00:56:08;2.50;99.90
46117;DHT22;32591;48.102;11.772;2022-12-10T00:58:37;2.40;99.90
46117;DHT22;32591;48.102;11.772;2022-12-10T01:01:12;2.40;99.90
46117;DHT22;32591;48.102;11.772;2022-12-10T01:03:42;2.40;99.90
46117;DHT22;32591;48.102;11.772;2022-12-10T01:06:13;2.50;99.90
46117;DHT22;32591;48.102;11.772;2022-12-10T01:08:43;2.40;99.90
46117;DHT22;32591;48.102;11.772;2022-12-10T01:11:12;2.50;99.90
46117;DHT22;32591;48.102;11.772;2022-12-10T01:13:41;2.50;99.90
46117;DHT22;32591;48.102;11.772;2022-12-10T01:16:10;2.50;99.90
46117;DHT22;32591;48.102;11.772;2022-12-10T01:18:39;2.50;99.90
46117;DHT22;32591;48.102;11.772;2022-12-10T01:21:08;2.50;99.90
46117;DHT22;32591;48.102;11.772;2022-12-10T01:23:39;2.40;99.90
46117;DHT22;32591;48.102;11.772;2022-12-10T01:26:08;2.40;99.90
46117;DHT22;32591;48.102;11.772;2022-12-10T01:28:38;2.50;99.90
46117;DHT22;32591;48.102;11.772;2022-12-10T01:31:08;2.50;99.90
46117;DHT22;32591;48.102;11.772;2022-12-10T01:33:37;2.50;99.90
46117;DHT22;32591;48.102;11.772;2022-12-10T01:36:07;2.50;99.90
46117;DHT22;32591;48.102;11.772;2022-12-10T01:38:37;2.50;99.90
46117;DHT22;32591;48.102;11.772;2022-12-10T01:41:05;2.50;99.90
46117;DHT22;32591;48.102;11.772;2022-12-10T01:43:51;2.60;99.90
46117;DHT22;32591;48.102;11.772;2022-12-10T01:46:20;2.60;99.90
46117;DHT22;32591;48.102;11.772;2022-12-10T01:48:49;2.60;99.90
46117;DHT22;32591;48.102;11.772;2022-12-10T01:51:17;2.60;99.90
46117;DHT22;32591;48.102;11.772;2022-12-10T01:53:46;2.60;99.90
46117;DHT22;32591;48.102;11.772;2022-12-10T01:56:16;2.60;99.90
46117;DHT22;32591;48.102;11.772;2022-12-10T01:58:44;2.60;99.90
46117;DHT22;32591;48.102;11.772;2022-12-10T02:01:15;2.60;99.90
46117;DHT22;32591;48.102;11.772;2022-12-10T02:03:56;2.60;99.90
46117;DHT22;32591;48.102;11.772;2022-12-10T02:06:38;2.50;99.90
46117;DHT22;32591;48.102;11.772;2022-12-10T02:09:20;2.50;99.90
46117;DHT22;32591;48.102;11.772;2022-12-10T02:11:59;2.40;99.90
46117;DHT22;32591;48.102;11.772;2022-12-10T02:14:41;2.40;99.90
46117;DHT22;32591;48.102;11.772;2022-12-10T02:17:27;2.40;99.90
46117;DHT22;32591;48.102;11.772;2022-12-10T02:20:03;2.40;99.90
46117;DHT22;32591;48.102;11.772;2022-12-10T02:22:36;2.40;99.90
46117;DHT22;32591;48.102;11.772;2022-12-10T02:25:09;2.50;99.90
46117;DHT22;32591;48.102;11.772;2022-12-10T02:27:42;2.50;99.90
46117;DHT22;32591;48.102;11.772;2022-12-10T02:30:14;2.50;99.90
46117;DHT22;32591;48.102;11.772;2022-12-10T02:32:43;2.50;99.90
46117;DHT22;32591;48.102;11.772;2022-12-10T02:35:14;2.60;99.90
46117;DHT22;32591;48.102;11.772;2022-12-10T02:37:47;2.50;99.90
46117;DHT22;32591;48.102;11.772;2022-12-10T02:40:19;2.60;99.90
46117;DHT22;32591;48.102;11.772;2022-12-10T02:42:50;2.50;99.90
46117;DHT22;32591;48.102;11.772;2022-12-10T02:45:21;2.50;99.90
46117;DHT22;32591;48.102;11.772;2022-12-10T02:47:51;2.60;99.90
46117;DHT22;32591;48.102;11.772;2022-12-10T02:50:21;2.50;99.90
46117;DHT22;32591;48.102;11.772;2022-12-10T02:52:49;2.50;99.90
46117;DHT22;32591;48.102;11.772;2022-12-10T02:55:17;2.50;99.90
46117;DHT22;32591;48.102;11.772;2022-12-10T02:57:56;2.60;99.90
46117;DHT22;32591;48.102;11.772;2022-12-10T03:00:36;2.60;99.90
46117;DHT22;32591;48.102;11.772;2022-12-10T03:03:24;2.60;99.90
46117;DHT22;32591;48.102;11.772;2022-12-10T03:06:02;2.50;99.90
46117;DHT22;32591;48.102;11.772;2022-12-10T03:08:39;2.50;99.90
46117;DHT22;32591;48.102;11.772;2022-12-10T03:11:11;2.60;99.90
46117;DHT22;32591;48.102;11.772;2022-12-10T03:13:45;2.60;99.90
46117;DHT22;32591;48.102;11.772;2022-12-10T03:16:19;2.60;99.90
46117;DHT22;32591;48.102;11.772;2022-12-10T03:18:51;2.60;99.90
46117;DHT22;32591;48.102;11.772;2022-12-10T03:21:22;2.60;99.90
46117;DHT22;32591;48.102;11.772;2022-12-10T03:23:51;2.60;99.90
46117;DHT22;32591;48.102;11.772;2022-12-10T03:26:18;2.50;99.90
46117;DHT22;32591;48.102;11.772;2022-12-10T03:28:50;2.50;99.90
46117;DHT22;32591;48.102;11.772;2022-12-10T03:31:20;2.50;99.90
46117;DHT22;32591;48.102;11.772;2022-12-10T03:33:48;2.50;99.90
46117;DHT22;32591;48.102;11.772;2022-12-10T03:36:17;2.50;99.90
46117;DHT22;32591;48.102;11.772;2022-12-10T03:38:45;2.60;99.90
46117;DHT22;32591;48.102;11.772;2022-12-10T03:41:12;2.60;99.90
46117;DHT22;32591;48.102;11.772;2022-12-10T03:43:53;2.50;99.90
46117;DHT22;32591;48.102;11.772;2022-12-10T03:46:23;2.60;99.90
46117;DHT22;32591;48.102;11.772;2022-12-10T03:48:51;2.50;99.90
46117;DHT22;32591;48.102;11.772;2022-12-10T03:51:18;2.50;99.90
46117;DHT22;32591;48.102;11.772;2022-12-10T03:53:46;2.50;99.90
46117;DHT22;32591;48.102;11.772;2022-12-10T03:56:14;2.50;99.90
46117;DHT22;32591;48.102;11.772;2022-12-10T03:58:42;2.50;99.90
46117;DHT22;32591;48.102;11.772;2022-12-10T04:01:08;2.50;99.90
46117;DHT22;32591;48.102;11.772;2022-12-10T04:03:38;2.60;99.90
46117;DHT22;32591;48.102;11.772;2022-12-10T04:06:08;2.50;99.90
46117;DHT22;32591;48.102;11.772;2022-12-10T04:08:36;2.60;99.90
46117;DHT22;32591;48.102;11.772;2022-12-10T04:11:04;2.50;99.90
46117;DHT22;32591;48.102;11.772;2022-12-10T04:13:32;2.60;99.90
46117;DHT22;32591;48.102;11.772;2022-12-10T04:16:17;2.50;99.90
46117;DHT22;32591;48.102;11.772;2022-12-10T04:18:56;2.50;99.90
46117;DHT22;32591;48.102;11.772;2022-12-10T04:21:24;2.50;99.90
46117;DHT22;32591;48.102;11.772;2022-12-10T04:24:09;2.50;99.90
46117;DHT22;32591;48.102;11.772;2022-12-10T04:26:55;2.50;99.90
46117;DHT22;32591;48.102;11.772;2022-12-10T04:29:28;2.50;99.90
46117;DHT22;32591;48.102;11.772;2022-12-10T04:31:58;2.50;99.90
46117;DHT22;32591;48.102;11.772;2022-12-10T04:34:27;2.50;99.90
46117;DHT22;32591;48.102;11.772;2022-12-10T04:36:54;2.50;99.90
46117;DHT22;32591;48.102;11.772;2022-12-10T04:39:21;2.50;99.90
46117;DHT22;32591;48.102;11.772;2022-12-10T04:41:49;2.40;99.90
46117;DHT22;32591;48.102;11.772;2022-12-10T04:44:17;2.50;99.90
46117;DHT22;32591;48.102;11.772;2022-12-10T04:46:44;2.50;99.90
46117;DHT22;32591;48.102;11.772;2022-12-10T04:49:12;2.50;99.90
46117;DHT22;32591;48.102;11.772;2022-12-10T04:51:41;2.50;99.90
46117;DHT22;32591;48.102;11.772;2022-12-10T04:54:08;2.30;99.90
46117;DHT22;32591;48.102;11.772;2022-12-10T04:56:36;2.30;99.90
46117;DHT22;32591;48.102;11.772;2022-12-10T04:59:05;2.30;99.90
46117;DHT22;32591;48.102;11.772;2022-12-10T05:01:33;2.40;99.90
46117;DHT22;32591;48.102;11.772;2022-12-10T05:04:02;2.40;99.90
46117;DHT22;32591;48.102;11.772;2022-12-10T05:06:31;2.40;99.90
46117;DHT22;32591;48.102;11.772;2022-12-10T05:08:59;2.40;99.90
46117;DHT22;32591;48.102;11.772;2022-12-10T05:11:28;2.40;99.90
46117;DHT22;32591;48.102;11.772;2022-12-10T05:13:57;2.30;99.90
46117;DHT22;32591;48.102;11.772;2022-12-10T05:16:26;2.20;99.90
46117;DHT22;32591;48.102;11.772;2022-12-10T05:18:56;2.20;99.90
46117;DHT22;32591;48.102;11.772;2022-12-10T05:21:26;2.30;99.90
46117;DHT22;32591;48.102;11.772;2022-12-10T05:24:17;2.30;99.90
46117;DHT22;32591;48.102;11.772;2022-12-10T05:26:43;2.30;99.90
46117;DHT22;32591;48.102;11.772;2022-12-10T05:29:11;2.30;99.90
46117;DHT22;32591;48.102;11.772;2022-12-10T05:31:39;2.20;99.90
46117;DHT22;32591;48.102;11.772;2022-12-10T05:34:06;2.20;99.90
46117;DHT22;32591;48.102;11.772;2022-12-10T05:36:34;2.10;99.90
46117;DHT22;32591;48.102;11.772;2022-12-10T05:39:01;2.10;99.90
46117;DHT22;32591;48.102;11.772;2022-12-10T05:41:34;1.90;99.90
46117;DHT22;32591;48.102;11.772;2022-12-10T05:44:02;2.00;99.90
46117;DHT22;32591;48.102;11.772;2022-12-10T05:46:32;2.00;99.90
46117;DHT22;32591;48.102;11.772;2022-12-10T05:49:00;2.00;99.90
46117;DHT22;32591;48.102;11.772;2022-12-10T05:51:30;2.00;99.90
46117;DHT22;32591;48.102;11.772;2022-12-10T05:54:00;2.10;99.90
46117;DHT22;32591;48.102;11.772;2022-12-10T05:56:30;2.10;99.90
46117;DHT22;32591;48.102;11.772;2022-12-10T05:58:59;2.10;99.90
46117;DHT22;32591;48.102;11.772;2022-12-10T06:01:28;2.20;99.90
46117;DHT22;32591;48.102;11.772;2022-12-10T06:03:58;2.20;99.90
46117;DHT22;32591;48.102;11.772;2022-12-10T06:06:28;2.20;99.90
46117;DHT22;32591;48.102;11.772;2022-12-10T06:08:56;2.20;99.90
46117;DHT22;32591;48.102;11.772;2022-12-10T06:11:24;2.10;99.90
46117;DHT22;32591;48.102;11.772;2022-12-10T06:13:53;2.20;99.90
46117;DHT22;32591;48.102;11.772;2022-12-10T06:16:21;2.20;99.90
46117;DHT22;32591;48.102;11.772;2022-12-10T06:18:48;2.20;99.90
46117;DHT22;32591;48.102;11.772;2022-12-10T06:21:16;2.20;99.90
46117;DHT22;32591;48.102;11.772;2022-12-10T06:23:44;2.20;99.90
46117;DHT22;32591;48.102;11.772;2022-12-10T06:26:13;2.20;99.90
46117;DHT22;32591;48.102;11.772;2022-12-10T06:28:43;2.20;99.90
46117;DHT22;32591;48.102;11.772;2022-12-10T06:31:12;2.20;99.90
46117;DHT22;32591;48.102;11.772;2022-12-10T06:33:40;2.10;99.90
46117;DHT22;32591;48.102;11.772;2022-12-10T06:36:10;2.00;99.90
46117;DHT22;32591;48.102;11.772;2022-12-10T06:38:37;2.00;99.90
46117;DHT22;32591;48.102;11.772;2022-12-10T06:41:06;1.90;99.90
46117;DHT22;32591;48.102;11.772;2022-12-10T06:43:34;1.90;99.90
46117;DHT22;32591;48.102;11.772;2022-12-10T06:46:04;1.90;99.90
46117;DHT22;32591;48.102;11.772;2022-12-10T06:48:34;1.90;99.90
46117;DHT22;32591;48.102;11.772;2022-12-10T06:51:02;1.80;99.90
46117;DHT22;32591;48.102;11.772;2022-12-10T06:53:29;1.80;99.90
46117;DHT22;32591;48.102;11.772;2022-12-10T06:55:58;1.90;99.90
46117;DHT22;32591;48.102;11.772;2022-12-10T06:58:27;1.90;99.90
46117;DHT22;32591;48.102;11.772;2022-12-10T07:01:01;1.90;99.90
46117;DHT22;32591;48.102;11.772;2022-12-10T07:03:29;2.00;99.90
46117;DHT22;32591;48.102;11.772;2022-12-10T07:05:58;2.00;99.90
46117;DHT22;32591;48.102;11.772;2022-12-10T07:08:25;2.10;99.90
46117;DHT22;32591;48.102;11.772;2022-12-10T07:10:52;2.10;99.90
46117;DHT22;32591;48.102;11.772;2022-12-10T07:13:19;2.10;99.90
46117;DHT22;32591;48.102;11.772;2022-12-10T07:15:46;2.20;99.90
46117;DHT22;32591;48.102;11.772;2022-12-10T07:18:13;2.10;99.90
46117;DHT22;32591;48.102;11.772;2022-12-10T07:20:40;2.20;99.90
46117;DHT22;32591;48.102;11.772;2022-12-10T07:23:09;2.20;99.90
46117;DHT22;32591;48.102;11.772;2022-12-10T07:25:36;2.30;99.90
46117;DHT22;32591;48.102;11.772;2022-12-10T07:28:03;2.30;99.90
46117;DHT22;32591;48.102;11.772;2022-12-10T07:30:30;2.30;99.90
46117;DHT22;32591;48.102;11.772;2022-12-10T07:32:57;2.20;99.90
46117;DHT22;32591;48.102;11.772;2022-12-10T07:35:24;2.20;99.90
46117;DHT22;32591;48.102;11.772;2022-12-10T07:37:51;2.20;99.90
46117;DHT22;32591;48.102;11.772;2022-12-10T07:40:19;2.30;99.90
46117;DHT22;32591;48.102;11.772;2022-12-10T07:42:46;2.30;99.90
46117;DHT22;32591;48.102;11.772;2022-12-10T07:45:13;2.30;99.90
46117;DHT22;32591;48.102;11.772;2022-12-10T07:47:40;2.30;99.90
46117;DHT22;32591;48.102;11.772;2022-12-10T07:50:07;2.30;99.90
46117;DHT22;32591;48.102;11.772;2022-12-10T07:52:34;2.30;99.90
46117;DHT22;32591;48.102;11.772;2022-12-10T07:55:01;2.30;99.90
46117;DHT22;32591;48.102;11.772;2022-12-10T07:57:30;2.20;99.90
46117;DHT22;32591;48.102;11.772;2022-12-10T07:59:57;2.10;99.90
46117;DHT22;32591;48.102;11.772;2022-12-10T08:02:24;1.90;99.90
46117;DHT22;32591;48.102;11.772;2022-12-10T08:04:51;2.00;99.90
46117;DHT22;32591;48.102;11.772;2022-12-10T08:07:18;2.10;99.90
46117;DHT22;32591;48.102;11.772;2022-12-10T08:09:45;2.30;99.90
46117;DHT22;32591;48.102;11.772;2022-12-10T08:12:12;2.20;99.90
46117;DHT22;32591;48.102;11.772;2022-12-10T08:14:40;2.30;99.90
46117;DHT22;32591;48.102;11.772;2022-12-10T08:17:07;2.20;99.90
46117;DHT22;32591;48.102;11.772;2022-12-10T08:19:34;2.20;99.90
46117;DHT22;32591;48.102;11.772;2022-12-10T08:22:01;2.20;99.90
46117;DHT22;32591;48.102;11.772;2022-12-10T08:24:28;2.20;99.90
46117;DHT22;32591;48.102;11.772;2022-12-10T08:26:55;2.20;99.90
46117;DHT22;32591;48.102;11.772;2022-12-10T08:29:23;2.30;99.90
46117;DHT22;32591;48.102;11.772;2022-12-10T08:31:51;2.20;99.90
46117;DHT22;32591;48.102;11.772;2022-12-10T08:34:19;2.20;99.90
46117;DHT22;32591;48.102;11.772;2022-12-10T08:36:46;2.10;99.90
46117;DHT22;32591;48.102;11.772;2022-12-10T08:39:13;2.00;99.90
46117;DHT22;32591;48.102;11.772;2022-12-10T08:41:42;1.90;99.90
46117;DHT22;32591;48.102;11.772;2022-12-10T08:44:10;1.80;99.90
46117;DHT22;32591;48.102;11.772;2022-12-10T08:46:37;1.70;99.90
46117;DHT22;32591;48.102;11.772;2022-12-10T08:49:06;1.60;99.90
46117;DHT22;32591;48.102;11.772;2022-12-10T08:51:33;1.70;99.90
46117;DHT22;32591;48.102;11.772;2022-12-10T08:54:01;1.80;99.90
46117;DHT22;32591;48.102;11.772;2022-12-10T08:56:28;1.90;99.90
46117;DHT22;32591;48.102;11.772;2022-12-10T08:58:55;2.00;99.90
46117;DHT22;32591;48.102;11.772;2022-12-10T09:01:22;2.10;99.90
46117;DHT22;32591;48.102;11.772;2022-12-10T09:03:49;2.10;99.90
46117;DHT22;32591;48.102;11.772;2022-12-10T09:06:19;2.10;99.90
46117;DHT22;32591;48.102;11.772;2022-12-10T09:08:49;2.20;99.90
46117;DHT22;32591;48.102;11.772;2022-12-10T09:11:18;2.20;99.90
46117;DHT22;32591;48.102;11.772;2022-12-10T09:13:46;2.20;99.90
46117;DHT22;32591;48.102;11.772;2022-12-10T09:16:14;2.20;99.90
46117;DHT22;32591;48.102;11.772;2022-12-10T09:18:41;2.20;99.90
46117;DHT22;32591;48.102;11.772;2022-12-10T09:21:10;2.20;99.90
46117;DHT22;32591;48.102;11.772;2022-12-10T09:23:40;2.20;99.90
46117;DHT22;32591;48.102;11.772;2022-12-10T09:26:09;2.10;99.90
46117;DHT22;32591;48.102;11.772;2022-12-10T09:28:38;2.10;99.90
46117;DHT22;32591;48.102;11.772;2022-12-10T09:31:06;2.00;99.90
46117;DHT22;32591;48.102;11.772;2022-12-10T09:33:34;2.00;99.90
46117;DHT22;32591;48.102;11.772;2022-12-10T09:36:03;2.00;99.90
46117;DHT22;32591;48.102;11.772;2022-12-10T09:38:31;2.00;99.90
46117;DHT22;32591;48.102;11.772;2022-12-10T09:41:01;1.80;99.90
46117;DHT22;32591;48.102;11.772;2022-12-10T09:43:42;1.80;99.90
46117;DHT22;32591;48.102;11.772;2022-12-10T09:46:19;2.10;99.90
46117;DHT22;32591;48.102;11.772;2022-12-10T09:49:01;2.20;99.90
46117;DHT22;32591;48.102;11.772;2022-12-10T09:51:36;2.20;99.90
46117;DHT22;32591;48.102;11.772;2022-12-10T09:54:13;2.60;99.90
46117;DHT22;32591;48.102;11.772;2022-12-10T09:56:46;4.10;99.90
46117;DHT22;32591;48.102;11.772;2022-12-10T09:59:18;3.40;99.90
46117;DHT22;32591;48.102;11.772;2022-12-10T10:01:50;3.20;99.90
46117;DHT22;32591;48.102;11.772;2022-12-10T10:04:27;2.90;99.90
46117;DHT22;32591;48.102;11.772;2022-12-10T10:06:55;2.70;99.90
46117;DHT22;32591;48.102;11.772;2022-12-10T10:09:22;2.50;99.90
46117;DHT22;32591;48.102;11.772;2022-12-10T10:11:51;2.50;99.90
46117;DHT22;32591;48.102;11.772;2022-12-10T10:14:24;2.30;99.90
46117;DHT22;32591;48.102;11.772;2022-12-10T10:16:55;2.30;99.90
46117;DHT22;32591;48.102;11.772;2022-12-10T10:19:30;2.20;99.90
46117;DHT22;32591;48.102;11.772;2022-12-10T10:21:59;2.10;99.90
46117;DHT22;32591;48.102;11.772;2022-12-10T10:24:33;1.90;99.90
46117;DHT22;32591;48.102;11.772;2022-12-10T10:27:11;1.80;99.90
46117;DHT22;32591;48.102;11.772;2022-12-10T10:29:40;1.80;99.90
46117;DHT22;32591;48.102;11.772;2022-12-10T10:32:13;1.90;99.90
46117;DHT22;32591;48.102;11.772;2022-12-10T10:34:42;1.90;99.90
46117;DHT22;32591;48.102;11.772;2022-12-10T10:37:23;1.90;99.90
46117;DHT22;32591;48.102;11.772;2022-12-10T10:39:52;1.80;99.90
46117;DHT22;32591;48.102;11.772;2022-12-10T10:42:31;1.70;99.90
46117;DHT22;32591;48.102;11.772;2022-12-10T10:45:02;1.70;99.90
46117;DHT22;32591;48.102;11.772;2022-12-10T10:47:31;1.60;99.90
46117;DHT22;32591;48.102;11.772;2022-12-10T10:49:59;1.60;99.90
46117;DHT22;32591;48.102;11.772;2022-12-10T10:52:28;1.60;99.90
46117;DHT22;32591;48.102;11.772;2022-12-10T10:54:56;1.60;99.90
46117;DHT22;32591;48.102;11.772;2022-12-10T10:57:28;1.70;99.90
46117;DHT22;32591;48.102;11.772;2022-12-10T11:00:03;1.70;99.90
46117;DHT22;32591;48.102;11.772;2022-12-10T11:02:34;1.80;99.90
46117;DHT22;32591;48.102;11.772;2022-12-10T11:05:06;1.80;99.90
46117;DHT22;32591;48.102;11.772;2022-12-10T11:07:36;1.80;99.90
46117;DHT22;32591;48.102;11.772;2022-12-10T11:10:16;1.80;99.90
46117;DHT22;32591;48.102;11.772;2022-12-10T11:12:54;1.80;99.90
46117;DHT22;32591;48.102;11.772;2022-12-10T11:15:32;1.80;99.90
46117;DHT22;32591;48.102;11.772;2022-12-10T11:18:09;1.80;99.90
46117;DHT22;32591;48.102;11.772;2022-12-10T11:20:57;1.80;99.90
46117;DHT22;32591;48.102;11.772;2022-12-10T11:23:30;1.80;99.90
46117;DHT22;32591;48.102;11.772;2022-12-10T11:26:21;1.80;99.90
46117;DHT22;32591;48.102;11.772;2022-12-10T11:29:09;1.80;99.90
46117;DHT22;32591;48.102;11.772;2022-12-10T11:31:54;1.80;99.90
46117;DHT22;32591;48.102;11.772;2022-12-10T11:34:34;1.70;99.90
46117;DHT22;32591;48.102;11.772;2022-12-10T11:37:11;1.80;99.90
46117;DHT22;32591;48.102;11.772;2022-12-10T11:39:55;1.80;99.90
46117;DHT22;32591;48.102;11.772;2022-12-10T11:42:33;1.80;99.90
46117;DHT22;32591;48.102;11.772;2022-12-10T11:45:13;1.70;99.90
46117;DHT22;32591;48.102;11.772;2022-12-10T11:47:59;1.80;99.90
46117;DHT22;32591;48.102;11.772;2022-12-10T11:50:39;1.70;99.90
46117;DHT22;32591;48.102;11.772;2022-12-10T11:53:32;1.80;99.90
46117;DHT22;32591;48.102;11.772;2022-12-10T11:56:12;1.80;99.90
46117;DHT22;32591;48.102;11.772;2022-12-10T11:59:02;1.80;99.90
46117;DHT22;32591;48.102;11.772;2022-12-10T12:01:47;1.70;99.90
46117;DHT22;32591;48.102;11.772;2022-12-10T12:04:28;1.80;99.90
46117;DHT22;32591;48.102;11.772;2022-12-10T12:13:03;1.80;99.90
46117;DHT22;32591;48.102;11.772;2022-12-10T12:15:35;1.80;99.90
46117;DHT22;32591;48.102;11.772;2022-12-10T12:18:13;1.90;99.90
46117;DHT22;32591;48.102;11.772;2022-12-10T12:20:46;1.90;99.90
46117;DHT22;32591;48.102;11.772;2022-12-10T12:23:21;1.80;99.90
46117;DHT22;32591;48.102;11.772;2022-12-10T12:25:55;2.00;99.90
46117;DHT22;32591;48.102;11.772;2022-12-10T12:28:26;2.00;99.90
46117;DHT22;32591;48.102;11.772;2022-12-10T12:31:01;2.00;99.90
46117;DHT22;32591;48.102;11.772;2022-12-10T12:33:42;1.90;99.90
46117;DHT22;32591;48.102;11.772;2022-12-10T12:36:16;1.80;99.90
46117;DHT22;32591;48.102;11.772;2022-12-10T12:38:51;1.80;99.90
46117;DHT22;32591;48.102;11.772;2022-12-10T12:41:29;1.90;99.90
46117;DHT22;32591;48.102;11.772;2022-12-10T12:44:03;1.90;99.90
46117;DHT22;32591;48.102;11.772;2022-12-10T12:46:37;1.80;99.90
46117;DHT22;32591;48.102;11.772;2022-12-10T12:49:15;1.80;99.90
46117;DHT22;32591;48.102;11.772;2022-12-10T12:51:51;1.80;99.90
46117;DHT22;32591;48.102;11.772;2022-12-10T12:54:20;1.70;99.90
46117;DHT22;32591;48.102;11.772;2022-12-10T12:57:01;1.70;99.90
46117;DHT22;32591;48.102;11.772;2022-12-10T12:59:52;1.70;99.90
46117;DHT22;32591;48.102;11.772;2022-12-10T13:02:44;1.70;99.90
46117;DHT22;32591;48.102;11.772;2022-12-10T13:05:23;1.70;99.90
46117;DHT22;32591;48.102;11.772;2022-12-10T13:08:23;1.70;99.90
46117;DHT22;32591;48.102;11.772;2022-12-10T13:11:16;1.70;99.90
46117;DHT22;32591;48.102;11.772;2022-12-10T13:14:16;2.10;99.90
46117;DHT22;32591;48.102;11.772;2022-12-10T13:17:27;1.80;99.90
46117;DHT22;32591;48.102;11.772;2022-12-10T13:20:33;1.80;99.90
46117;DHT22;32591;48.102;11.772;2022-12-10T13:23:03;1.70;99.90
46117;DHT22;32591;48.102;11.772;2022-12-10T13:25:54;1.70;99.90
46117;DHT22;32591;48.102;11.772;2022-12-10T13:28:29;1.70;99.90
46117;DHT22;32591;48.102;11.772;2022-12-10T13:31:19;1.60;99.90
46117;DHT22;32591;48.102;11.772;2022-12-10T13:34:23;1.50;99.90
46117;DHT22;32591;48.102;11.772;2022-12-10T13:37:16;1.60;99.90
46117;DHT22;32591;48.102;11.772;2022-12-10T13:39:50;1.60;99.90
46117;DHT22;32591;48.102;11.772;2022-12-10T13:42:30;1.50;99.90
46117;DHT22;32591;48.102;11.772;2022-12-10T13:45:34;1.50;99.90
46117;DHT22;32591;48.102;11.772;2022-12-10T13:48:32;1.50;99.90
46117;DHT22;32591;48.102;11.772;2022-12-10T13:51:21;1.50;99.90
46117;DHT22;32591;48.102;11.772;2022-12-10T13:54:07;1.50;99.90
46117;DHT22;32591;48.102;11.772;2022-12-10T13:57:02;1.50;99.90
46117;DHT22;32591;48.102;11.772;2022-12-10T13:59:40;1.50;99.90
46117;DHT22;32591;48.102;11.772;2022-12-10T14:02:23;1.50;99.90
46117;DHT22;32591;48.102;11.772;2022-12-10T14:05:14;1.40;99.90
46117;DHT22;32591;48.102;11.772;2022-12-10T14:08:04;1.40;99.90
46117;DHT22;32591;48.102;11.772;2022-12-10T14:10:35;2.80;99.90
46117;DHT22;32591;48.102;11.772;2022-12-10T14:13:04;4.70;99.90
46117;DHT22;32591;48.102;11.772;2022-12-10T14:15:34;3.50;99.90
46117;DHT22;32591;48.102;11.772;2022-12-10T14:18:08;2.70;99.90
46117;DHT22;32591;48.102;11.772;2022-12-10T14:20:46;2.20;99.90
46117;DHT22;32591;48.102;11.772;2022-12-10T14:23:24;1.90;99.90
46117;DHT22;32591;48.102;11.772;2022-12-10T14:26:06;1.60;99.90
46117;DHT22;32591;48.102;11.772;2022-12-10T14:28:39;1.50;99.90
46117;DHT22;32591;48.102;11.772;2022-12-10T14:31:13;1.40;99.90
46117;DHT22;32591;48.102;11.772;2022-12-10T14:33:44;1.40;99.90
46117;DHT22;32591;48.102;11.772;2022-12-10T14:36:18;1.40;99.90
46117;DHT22;32591;48.102;11.772;2022-12-10T14:38:49;1.40;99.90
46117;DHT22;32591;48.102;11.772;2022-12-10T14:41:21;1.40;99.90
46117;DHT22;32591;48.102;11.772;2022-12-10T14:43:50;1.40;99.90
46117;DHT22;32591;48.102;11.772;2022-12-10T14:46:19;1.40;99.90
46117;DHT22;32591;48.102;11.772;2022-12-10T14:48:50;1.40;99.90
46117;DHT22;32591;48.102;11.772;2022-12-10T14:51:21;1.30;99.90
46117;DHT22;32591;48.102;11.772;2022-12-10T14:53:52;1.30;99.90
46117;DHT22;32591;48.102;11.772;2022-12-10T14:56:25;1.20;99.90
46117;DHT22;32591;48.102;11.772;2022-12-10T14:59:00;1.30;99.90
46117;DHT22;32591;48.102;11.772;2022-12-10T15:01:32;1.20;99.90
46117;DHT22;32591;48.102;11.772;2022-12-10T15:04:03;1.20;99.90
46117;DHT22;32591;48.102;11.772;2022-12-10T15:06:34;1.20;99.90
46117;DHT22;32591;48.102;11.772;2022-12-10T15:09:04;1.20;99.90
46117;DHT22;32591;48.102;11.772;2022-12-10T15:11:33;1.40;99.90
46117;DHT22;32591;48.102;11.772;2022-12-10T15:14:02;1.50;99.90
46117;DHT22;32591;48.102;11.772;2022-12-10T15:16:37;1.40;99.90
46117;DHT22;32591;48.102;11.772;2022-12-10T15:19:15;1.30;99.90
46117;DHT22;32591;48.102;11.772;2022-12-10T15:21:46;1.20;99.90
46117;DHT22;32591;48.102;11.772;2022-12-10T15:24:16;1.10;99.90
46117;DHT22;32591;48.102;11.772;2022-12-10T15:26:49;1.00;99.90
46117;DHT22;32591;48.102;11.772;2022-12-10T15:29:35;1.30;99.90
46117;DHT22;32591;48.102;11.772;2022-12-10T15:32:08;1.30;99.90
46117;DHT22;32591;48.102;11.772;2022-12-10T15:34:42;1.30;99.90
46117;DHT22;32591;48.102;11.772;2022-12-10T15:37:21;1.40;99.90
46117;DHT22;32591;48.102;11.772;2022-12-10T15:39:53;1.40;99.90
46117;DHT22;32591;48.102;11.772;2022-12-10T15:42:36;1.40;99.90
46117;DHT22;32591;48.102;11.772;2022-12-10T15:45:22;1.30;99.90
46117;DHT22;32591;48.102;11.772;2022-12-10T15:47:52;1.30;99.90
46117;DHT22;32591;48.102;11.772;2022-12-10T15:50:20;1.20;99.90
46117;DHT22;32591;48.102;11.772;2022-12-10T15:52:47;1.20;99.90
46117;DHT22;32591;48.102;11.772;2022-12-10T15:55:14;1.10;99.90
46117;DHT22;32591;48.102;11.772;2022-12-10T15:57:44;1.10;99.90
46117;DHT22;32591;48.102;11.772;2022-12-10T16:00:17;1.10;99.90
46117;DHT22;32591;48.102;11.772;2022-12-10T16:02:48;1.10;99.90
46117;DHT22;32591;48.102;11.772;2022-12-10T16:05:18;1.10;99.90
46117;DHT22;32591;48.102;11.772;2022-12-10T16:07:49;1.10;99.90
46117;DHT22;32591;48.102;11.772;2022-12-10T16:10:19;1.10;99.90